createdAt,value
2018-06-11T00:00:02.812Z,0.00
2018-06-11T00:01:02.821Z,0.00
2018-06-11T00:02:02.810Z,0.00
2018-06-11T00:03:02.833Z,0.00
2018-06-11T00:04:02.816Z,0.00
2018-06-11T00:05:02.834Z,0.00
2018-06-11T00:06:02.829Z,0.00
2018-06-11T00:07:02.837Z,0.00
2018-06-11T00:08:02.824Z,0.00
2018-06-11T00:09:02.827Z,0.00
2018-06-11T00:10:02.847Z,0.00
2018-06-11T00:11:02.834Z,0.00
2018-06-11T00:12:02.839Z,0.00
2018-06-11T00:13:02.863Z,0.00
2018-06-11T00:14:02.844Z,0.00
2018-06-11T00:15:02.856Z,0.00
2018-06-11T00:16:03.063Z,0.00
2018-06-11T00:17:02.853Z,0.00
2018-06-11T00:18:02.856Z,0.00
2018-06-11T00:19:03.061Z,0.00
2018-06-11T00:20:02.861Z,0.00
2018-06-11T00:21:02.874Z,0.00
2018-06-11T00:22:02.867Z,0.00
2018-06-11T00:23:03.090Z,0.00
2018-06-11T00:24:02.883Z,0.00
2018-06-11T00:25:02.876Z,0.00
2018-06-11T00:26:02.878Z,0.00
2018-06-11T00:27:03.083Z,0.00
2018-06-11T00:28:02.893Z,0.00
2018-06-11T00:29:02.889Z,0.00
2018-06-11T00:30:02.894Z,0.00
2018-06-11T00:31:02.899Z,0.00
2018-06-11T00:32:02.895Z,0.00
2018-06-11T00:33:02.911Z,0.00
2018-06-11T00:34:03.105Z,0.00
2018-06-11T00:35:02.926Z,0.00
2018-06-11T00:36:03.110Z,0.00
2018-06-11T00:37:03.113Z,0.00
2018-06-11T00:38:02.916Z,0.00
2018-06-11T00:39:02.916Z,0.00
2018-06-11T00:40:02.918Z,0.00
2018-06-11T00:41:02.934Z,0.00
2018-06-11T00:42:02.947Z,0.00
2018-06-11T00:43:02.930Z,0.00
2018-06-11T00:44:02.934Z,0.00
2018-06-11T00:45:02.961Z,0.00
2018-06-11T00:46:02.950Z,0.00
2018-06-11T00:47:02.938Z,0.00
2018-06-11T00:48:02.940Z,0.00
2018-06-11T00:49:02.946Z,0.00
2018-06-11T00:50:02.950Z,0.00
2018-06-11T00:51:02.960Z,0.00
2018-06-11T00:52:02.952Z,0.00
2018-06-11T00:53:03.169Z,0.00
2018-06-11T00:54:02.973Z,0.00
2018-06-11T00:55:03.165Z,0.00
2018-06-11T00:56:02.965Z,0.00
2018-06-11T00:57:02.970Z,0.00
2018-06-11T00:58:02.984Z,0.00
2018-06-11T00:59:02.976Z,0.00
2018-06-11T01:00:03.181Z,0.00
2018-06-11T01:01:03.228Z,0.00
2018-06-11T01:02:02.985Z,0.00
2018-06-11T01:03:03.193Z,0.00
2018-06-11T01:04:02.986Z,0.00
2018-06-11T01:05:03.015Z,0.00
2018-06-11T01:06:02.995Z,0.00
2018-06-11T01:07:02.994Z,0.00
2018-06-11T01:08:03.000Z,0.00
2018-06-11T01:09:03.013Z,0.00
2018-06-11T01:10:03.208Z,0.00
2018-06-11T01:11:03.223Z,0.00
2018-06-11T01:12:03.028Z,0.00
2018-06-11T01:13:03.025Z,0.00
2018-06-11T01:14:03.046Z,0.00
2018-06-11T01:15:03.033Z,0.00
2018-06-11T01:16:03.027Z,0.00
2018-06-11T01:17:03.041Z,0.00
2018-06-11T01:18:03.040Z,0.00
2018-06-11T01:19:03.044Z,0.00
2018-06-11T01:20:03.036Z,0.00
2018-06-11T01:21:03.047Z,0.00
2018-06-11T01:22:03.066Z,0.00
2018-06-11T01:23:03.243Z,0.00
2018-06-11T01:24:03.057Z,0.00
2018-06-11T01:25:03.049Z,0.00
2018-06-11T01:26:03.054Z,0.00
2018-06-11T01:27:03.056Z,0.00
2018-06-11T01:28:03.070Z,0.00
2018-06-11T01:29:03.071Z,0.00
2018-06-11T01:30:03.299Z,0.00
2018-06-11T01:31:03.269Z,0.00
2018-06-11T01:32:03.274Z,0.00
2018-06-11T01:33:03.073Z,0.00
2018-06-11T01:34:03.074Z,0.00
2018-06-11T01:35:03.090Z,0.00
2018-06-11T01:36:03.079Z,0.00
2018-06-11T01:37:03.085Z,0.00
2018-06-11T01:38:03.099Z,0.00
2018-06-11T01:39:03.098Z,0.00
2018-06-11T01:40:03.297Z,0.00
2018-06-11T01:41:03.094Z,0.00
2018-06-11T01:42:03.097Z,0.00
2018-06-11T01:43:03.099Z,0.00
2018-06-11T01:44:03.108Z,0.00
2018-06-11T01:45:03.104Z,0.00
2018-06-11T01:46:03.109Z,0.00
2018-06-11T01:47:03.111Z,0.00
2018-06-11T01:48:03.117Z,0.00
2018-06-11T01:49:03.117Z,0.00
2018-06-11T01:50:03.135Z,0.00
2018-06-11T01:51:03.133Z,0.00
2018-06-11T01:52:03.126Z,0.00
2018-06-11T01:53:03.131Z,0.00
2018-06-11T01:54:03.145Z,0.00
2018-06-11T01:55:03.147Z,0.00
2018-06-11T01:56:03.150Z,0.00
2018-06-11T01:57:03.153Z,0.00
2018-06-11T01:58:03.145Z,0.00
2018-06-11T01:59:03.151Z,0.00
2018-06-11T02:00:03.151Z,0.00
2018-06-11T02:01:03.367Z,0.00
2018-06-11T02:02:03.157Z,0.00
2018-06-11T02:03:03.159Z,0.00
2018-06-11T02:04:03.164Z,0.00
2018-06-11T02:05:03.170Z,0.00
2018-06-11T02:06:03.181Z,0.00
2018-06-11T02:07:03.384Z,0.00
2018-06-11T02:08:03.178Z,0.00
2018-06-11T02:09:03.392Z,0.00
2018-06-11T02:10:03.196Z,0.00
2018-06-11T02:11:03.199Z,0.00
2018-06-11T02:12:03.187Z,0.00
2018-06-11T02:13:03.206Z,0.00
2018-06-11T02:14:03.207Z,0.00
2018-06-11T02:15:03.205Z,0.00
2018-06-11T02:16:03.209Z,0.00
2018-06-11T02:17:03.420Z,0.00
2018-06-11T02:18:03.217Z,0.00
2018-06-11T02:19:03.208Z,0.00
2018-06-11T02:20:03.211Z,0.00
2018-06-11T02:21:03.214Z,0.00
2018-06-11T02:22:03.231Z,0.00
2018-06-11T02:23:03.219Z,0.00
2018-06-11T02:24:03.222Z,0.00
2018-06-11T02:25:03.225Z,0.00
2018-06-11T02:26:03.433Z,0.00
2018-06-11T02:27:03.259Z,0.00
2018-06-11T02:28:03.437Z,0.00
2018-06-11T02:29:03.256Z,0.00
2018-06-11T02:30:03.245Z,0.00
2018-06-11T02:31:03.244Z,0.00
2018-06-11T02:32:03.458Z,0.00
2018-06-11T02:33:03.255Z,0.00
2018-06-11T02:34:03.252Z,0.00
2018-06-11T02:35:03.494Z,0.00
2018-06-11T02:36:03.277Z,0.00
2018-06-11T02:37:03.279Z,0.00
2018-06-11T02:38:03.272Z,0.00
2018-06-11T02:39:03.264Z,0.00
2018-06-11T02:40:03.471Z,0.00
2018-06-11T02:41:03.270Z,0.00
2018-06-11T02:42:03.297Z,0.00
2018-06-11T02:43:03.494Z,0.00
2018-06-11T02:44:03.482Z,0.00
2018-06-11T02:45:03.293Z,0.00
2018-06-11T02:46:03.295Z,0.00
2018-06-11T02:47:03.285Z,0.00
2018-06-11T02:48:03.290Z,0.00
2018-06-11T02:49:03.294Z,0.00
2018-06-11T02:50:03.298Z,0.00
2018-06-11T02:51:03.328Z,0.00
2018-06-11T02:52:03.299Z,0.00
2018-06-11T02:53:03.317Z,0.00
2018-06-11T02:54:03.318Z,0.00
2018-06-11T02:55:03.313Z,0.00
2018-06-11T02:56:03.329Z,0.00
2018-06-11T02:57:03.312Z,0.00
2018-06-11T02:58:03.319Z,0.00
2018-06-11T02:59:03.319Z,0.00
2018-06-11T03:00:03.325Z,0.00
2018-06-11T03:01:03.323Z,0.00
2018-06-11T03:02:03.347Z,0.00
2018-06-11T03:03:03.329Z,0.00
2018-06-11T03:04:03.333Z,0.00
2018-06-11T03:05:03.538Z,0.00
2018-06-11T03:06:03.336Z,0.00
2018-06-11T03:07:03.343Z,0.00
2018-06-11T03:08:03.343Z,0.00
2018-06-11T03:09:03.559Z,0.00
2018-06-11T03:10:03.354Z,0.00
2018-06-11T03:11:03.350Z,0.00
2018-06-11T03:12:03.559Z,0.00
2018-06-11T03:13:03.359Z,0.00
2018-06-11T03:14:03.357Z,0.00
2018-06-11T03:15:03.561Z,0.00
2018-06-11T03:16:03.563Z,0.00
2018-06-11T03:17:03.364Z,0.00
2018-06-11T03:18:03.375Z,0.00
2018-06-11T03:19:03.366Z,0.00
2018-06-11T03:20:03.386Z,0.00
2018-06-11T03:21:03.397Z,0.00
2018-06-11T03:22:03.592Z,0.00
2018-06-11T03:23:03.579Z,0.00
2018-06-11T03:24:03.382Z,0.00
2018-06-11T03:25:03.383Z,0.00
2018-06-11T03:26:03.403Z,0.00
2018-06-11T03:27:03.403Z,0.00
2018-06-11T03:28:03.397Z,0.00
2018-06-11T03:29:03.402Z,0.00
2018-06-11T03:30:03.607Z,0.00
2018-06-11T03:31:03.394Z,0.00
2018-06-11T03:32:03.614Z,0.00
2018-06-11T03:33:03.409Z,0.00
2018-06-11T03:34:03.604Z,0.00
2018-06-11T03:35:03.404Z,0.00
2018-06-11T03:36:03.404Z,0.00
2018-06-11T03:37:03.612Z,0.00
2018-06-11T03:38:03.436Z,0.00
2018-06-11T03:39:03.413Z,0.00
2018-06-11T03:40:03.618Z,0.00
2018-06-11T03:41:03.433Z,0.00
2018-06-11T03:42:03.432Z,0.00
2018-06-11T03:43:03.440Z,0.00
2018-06-11T03:44:03.439Z,0.00
2018-06-11T03:45:03.437Z,0.00
2018-06-11T03:46:03.659Z,0.00
2018-06-11T03:47:03.660Z,0.00
2018-06-11T03:48:03.433Z,0.00
2018-06-11T03:49:03.638Z,0.00
2018-06-11T03:50:03.455Z,0.00
2018-06-11T03:51:03.441Z,0.00
2018-06-11T03:52:03.462Z,0.00
2018-06-11T03:53:03.649Z,0.00
2018-06-11T03:54:03.475Z,0.00
2018-06-11T03:55:03.453Z,0.00
2018-06-11T03:56:03.673Z,0.00
2018-06-11T03:57:03.661Z,0.00
2018-06-11T03:58:03.460Z,0.00
2018-06-11T03:59:03.472Z,0.00
2018-06-11T04:00:03.463Z,0.00
2018-06-11T04:01:03.469Z,0.00
2018-06-11T04:02:03.471Z,0.00
2018-06-11T04:03:03.482Z,0.00
2018-06-11T04:04:03.485Z,0.00
2018-06-11T04:05:03.497Z,0.00
2018-06-11T04:06:03.488Z,0.00
2018-06-11T04:07:03.495Z,0.00
2018-06-11T04:08:03.689Z,0.00
2018-06-11T04:09:03.510Z,0.00
2018-06-11T04:10:03.510Z,0.00
2018-06-11T04:11:03.605Z,0.00
2018-06-11T04:12:03.508Z,0.00
2018-06-11T04:13:03.502Z,0.00
2018-06-11T04:14:03.503Z,0.00
2018-06-11T04:15:03.507Z,0.00
2018-06-11T04:16:03.510Z,0.00
2018-06-11T04:17:03.527Z,0.00
2018-06-11T04:18:03.532Z,0.00
2018-06-11T04:19:03.519Z,0.00
2018-06-11T04:20:03.534Z,0.00
2018-06-11T04:21:03.539Z,0.00
2018-06-11T04:22:03.558Z,0.00
2018-06-11T04:23:03.553Z,0.00
2018-06-11T04:24:03.549Z,0.00
2018-06-11T04:25:03.739Z,0.00
2018-06-11T04:26:03.543Z,0.00
2018-06-11T04:27:03.748Z,0.00
2018-06-11T04:28:03.546Z,0.00
2018-06-11T04:29:03.754Z,0.00
2018-06-11T04:30:03.552Z,0.00
2018-06-11T04:31:03.555Z,0.00
2018-06-11T04:32:03.559Z,0.00
2018-06-11T04:33:03.560Z,0.00
2018-06-11T04:34:03.565Z,0.00
2018-06-11T04:35:03.565Z,0.00
2018-06-11T04:36:03.566Z,0.00
2018-06-11T04:37:03.571Z,0.00
2018-06-11T04:38:03.572Z,0.00
2018-06-11T04:39:03.578Z,0.00
2018-06-11T04:40:03.580Z,0.00
2018-06-11T04:41:03.591Z,0.00
2018-06-11T04:42:03.585Z,0.00
2018-06-11T04:43:03.588Z,0.00
2018-06-11T04:44:03.589Z,5.63
2018-06-11T04:45:03.795Z,5.63
2018-06-11T04:46:03.597Z,5.63
2018-06-11T04:47:03.608Z,5.63
2018-06-11T04:48:03.600Z,5.63
2018-06-11T04:49:03.624Z,5.63
2018-06-11T04:50:03.621Z,5.63
2018-06-11T04:51:03.623Z,5.63
2018-06-11T04:52:03.623Z,5.63
2018-06-11T04:53:03.617Z,5.63
2018-06-11T04:54:03.617Z,5.63
2018-06-11T04:55:03.639Z,5.63
2018-06-11T04:56:03.624Z,0.00
2018-06-11T04:57:03.628Z,5.63
2018-06-11T04:58:03.627Z,5.63
2018-06-11T04:59:03.629Z,5.63
2018-06-11T05:00:03.836Z,5.63
2018-06-11T05:01:03.638Z,5.63
2018-06-11T05:02:03.851Z,5.63
2018-06-11T05:03:03.842Z,5.63
2018-06-11T05:04:03.645Z,5.63
2018-06-11T05:05:03.646Z,5.63
2018-06-11T05:06:03.852Z,5.63
2018-06-11T05:07:03.650Z,5.63
2018-06-11T05:08:03.912Z,5.63
2018-06-11T05:09:03.653Z,5.63
2018-06-11T05:10:03.677Z,5.63
2018-06-11T05:11:03.685Z,5.63
2018-06-11T05:12:03.867Z,5.63
2018-06-11T05:13:03.665Z,5.63
2018-06-11T05:14:03.672Z,5.63
2018-06-11T05:15:03.670Z,5.63
2018-06-11T05:16:03.690Z,5.63
2018-06-11T05:17:03.691Z,5.63
2018-06-11T05:18:03.893Z,5.63
2018-06-11T05:19:03.682Z,5.63
2018-06-11T05:20:03.730Z,5.63
2018-06-11T05:21:03.685Z,5.63
2018-06-11T05:22:03.688Z,5.63
2018-06-11T05:23:03.691Z,5.63
2018-06-11T05:24:03.705Z,5.63
2018-06-11T05:25:03.707Z,5.63
2018-06-11T05:26:03.697Z,5.63
2018-06-11T05:27:03.708Z,5.63
2018-06-11T05:28:03.701Z,5.63
2018-06-11T05:29:03.710Z,5.63
2018-06-11T05:30:03.718Z,5.63
2018-06-11T05:31:03.721Z,5.63
2018-06-11T05:32:03.717Z,5.63
2018-06-11T05:33:03.715Z,11.25
2018-06-11T05:34:03.719Z,11.25
2018-06-11T05:35:03.734Z,11.25
2018-06-11T05:36:03.940Z,11.25
2018-06-11T05:37:03.742Z,11.25
2018-06-11T05:38:03.967Z,11.25
2018-06-11T05:39:03.953Z,11.25
2018-06-11T05:40:03.737Z,11.25
2018-06-11T05:41:03.972Z,11.25
2018-06-11T05:42:03.956Z,11.25
2018-06-11T05:43:03.745Z,11.25
2018-06-11T05:44:03.748Z,11.25
2018-06-11T05:45:03.765Z,11.25
2018-06-11T05:46:03.954Z,11.25
2018-06-11T05:47:03.754Z,11.25
2018-06-11T05:48:36.988Z,5.63
2018-06-11T05:49:03.760Z,5.63
2018-06-11T05:50:03.972Z,5.63
2018-06-11T05:51:03.778Z,5.63
2018-06-11T05:52:03.784Z,5.63
2018-06-11T05:53:03.798Z,5.63
2018-06-11T05:54:03.796Z,5.63
2018-06-11T05:55:03.986Z,5.63
2018-06-11T05:56:03.782Z,11.25
2018-06-11T05:57:03.792Z,11.25
2018-06-11T05:58:03.794Z,11.25
2018-06-11T05:59:03.803Z,11.25
2018-06-11T06:00:03.807Z,11.25
2018-06-11T06:01:04.030Z,11.25
2018-06-11T06:02:03.810Z,11.25
2018-06-11T06:03:03.827Z,11.25
2018-06-11T06:04:03.810Z,11.25
2018-06-11T06:05:03.809Z,11.25
2018-06-11T06:06:03.820Z,16.88
2018-06-11T06:07:03.818Z,16.88
2018-06-11T06:08:03.814Z,16.88
2018-06-11T06:09:03.813Z,16.88
2018-06-11T06:10:03.817Z,16.88
2018-06-11T06:11:03.831Z,16.88
2018-06-11T06:12:03.832Z,16.88
2018-06-11T06:13:03.826Z,16.88
2018-06-11T06:14:03.851Z,16.88
2018-06-11T06:15:04.037Z,16.88
2018-06-11T06:16:03.830Z,22.50
2018-06-11T06:17:04.036Z,16.88
2018-06-11T06:18:04.049Z,16.88
2018-06-11T06:19:03.855Z,16.88
2018-06-11T06:20:03.857Z,67.50
2018-06-11T06:21:03.857Z,112.50
2018-06-11T06:22:04.092Z,22.50
2018-06-11T06:23:03.851Z,78.75
2018-06-11T06:24:03.853Z,135.00
2018-06-11T06:25:03.873Z,67.50
2018-06-11T06:26:04.070Z,45.00
2018-06-11T06:27:03.875Z,16.88
2018-06-11T06:28:03.863Z,22.50
2018-06-11T06:29:03.870Z,45.00
2018-06-11T06:30:04.090Z,168.75
2018-06-11T06:31:04.078Z,168.75
2018-06-11T06:32:03.879Z,84.38
2018-06-11T06:33:04.104Z,33.75
2018-06-11T06:34:03.927Z,22.50
2018-06-11T06:35:03.895Z,22.50
2018-06-11T06:36:03.887Z,22.50
2018-06-11T06:37:03.892Z,22.50
2018-06-11T06:38:03.904Z,16.88
2018-06-11T06:39:03.895Z,16.88
2018-06-11T06:40:03.930Z,16.88
2018-06-11T06:41:03.915Z,16.88
2018-06-11T06:42:03.906Z,16.88
2018-06-11T06:43:03.908Z,16.88
2018-06-11T06:44:03.913Z,16.88
2018-06-11T06:45:03.929Z,22.50
2018-06-11T06:46:04.119Z,22.50
2018-06-11T06:47:04.134Z,22.50
2018-06-11T06:48:03.935Z,16.88
2018-06-11T06:49:04.149Z,22.50
2018-06-11T06:50:03.932Z,22.50
2018-06-11T06:51:03.947Z,22.50
2018-06-11T06:52:03.962Z,16.88
2018-06-11T06:53:03.958Z,16.88
2018-06-11T06:54:03.951Z,16.88
2018-06-11T06:55:04.148Z,16.88
2018-06-11T06:56:03.951Z,16.88
2018-06-11T06:57:03.952Z,16.88
2018-06-11T06:58:03.969Z,16.88
2018-06-11T06:59:04.173Z,16.88
2018-06-11T07:00:03.963Z,16.88
2018-06-11T07:01:04.168Z,16.88
2018-06-11T07:02:04.171Z,16.88
2018-06-11T07:03:03.973Z,16.88
2018-06-11T07:04:03.975Z,16.88
2018-06-11T07:05:03.995Z,16.88
2018-06-11T07:06:03.990Z,16.88
2018-06-11T07:07:03.996Z,16.88
2018-06-11T07:08:04.237Z,16.88
2018-06-11T07:09:04.197Z,16.88
2018-06-11T07:10:03.995Z,16.88
2018-06-11T07:11:03.997Z,16.88
2018-06-11T07:12:04.015Z,16.88
2018-06-11T07:13:04.006Z,16.88
2018-06-11T07:14:04.211Z,16.88
2018-06-11T07:15:04.222Z,16.88
2018-06-11T07:16:04.214Z,22.50
2018-06-11T07:17:04.027Z,22.50
2018-06-11T07:18:04.029Z,22.50
2018-06-11T07:19:04.231Z,33.75
2018-06-11T07:20:04.035Z,22.50
2018-06-11T07:21:04.231Z,22.50
2018-06-11T07:22:04.048Z,22.50
2018-06-11T07:23:04.235Z,22.50
2018-06-11T07:24:04.042Z,16.88
2018-06-11T07:25:04.066Z,16.88
2018-06-11T07:26:04.047Z,16.88
2018-06-11T07:27:04.263Z,16.88
2018-06-11T07:28:04.255Z,16.88
2018-06-11T07:29:04.051Z,16.88
2018-06-11T07:30:04.068Z,16.88
2018-06-11T07:31:04.080Z,22.50
2018-06-11T07:32:04.260Z,22.50
2018-06-11T07:33:04.067Z,22.50
2018-06-11T07:34:04.081Z,22.50
2018-06-11T07:35:04.094Z,22.50
2018-06-11T07:36:04.290Z,22.50
2018-06-11T07:37:04.091Z,22.50
2018-06-11T07:38:04.090Z,22.50
2018-06-11T07:39:04.288Z,22.50
2018-06-11T07:40:04.287Z,22.50
2018-06-11T07:41:04.147Z,22.50
2018-06-11T07:42:04.103Z,22.50
2018-06-11T07:43:04.295Z,22.50
2018-06-11T07:44:04.113Z,22.50
2018-06-11T07:45:04.105Z,22.50
2018-06-11T07:46:04.123Z,28.13
2018-06-11T07:47:04.119Z,28.13
2018-06-11T07:48:04.376Z,22.50
2018-06-11T07:49:04.116Z,28.13
2018-06-11T07:50:04.337Z,22.50
2018-06-11T07:51:04.327Z,28.13
2018-06-11T07:52:04.129Z,28.13
2018-06-11T07:53:04.129Z,16.88
2018-06-11T07:54:04.359Z,28.13
2018-06-11T07:55:04.166Z,28.13
2018-06-11T07:56:04.157Z,28.13
2018-06-11T07:57:04.146Z,33.75
2018-06-11T07:58:04.148Z,28.13
2018-06-11T07:59:04.355Z,28.13
2018-06-11T08:00:04.222Z,33.75
2018-06-11T08:01:04.179Z,16.88
2018-06-11T08:02:04.162Z,39.38
2018-06-11T08:03:04.379Z,33.75
2018-06-11T08:04:04.167Z,28.13
2018-06-11T08:05:04.385Z,16.88
2018-06-11T08:06:04.201Z,22.50
2018-06-11T08:07:04.193Z,22.50
2018-06-11T08:08:04.186Z,33.75
2018-06-11T08:09:04.387Z,33.75
2018-06-11T08:10:04.403Z,39.38
2018-06-11T08:11:04.202Z,45.00
2018-06-11T08:12:04.209Z,78.75
2018-06-11T08:13:04.406Z,78.75
2018-06-11T08:14:04.203Z,61.88
2018-06-11T08:15:04.228Z,33.75
2018-06-11T08:16:04.217Z,33.75
2018-06-11T08:17:04.223Z,33.75
2018-06-11T08:18:04.433Z,28.13
2018-06-11T08:19:04.233Z,28.13
2018-06-11T08:20:04.236Z,28.13
2018-06-11T08:21:04.237Z,28.13
2018-06-11T08:22:04.229Z,28.13
2018-06-11T08:23:04.464Z,16.88
2018-06-11T08:24:04.251Z,28.13
2018-06-11T08:25:04.250Z,28.13
2018-06-11T08:26:04.245Z,28.13
2018-06-11T08:27:04.268Z,28.13
2018-06-11T08:28:04.252Z,22.50
2018-06-11T08:29:04.259Z,16.88
2018-06-11T08:30:04.271Z,22.50
2018-06-11T08:31:04.273Z,22.50
2018-06-11T08:32:04.265Z,22.50
2018-06-11T08:33:04.281Z,16.88
2018-06-11T08:34:04.290Z,16.88
2018-06-11T08:35:04.324Z,16.88
2018-06-11T08:36:04.307Z,16.88
2018-06-11T08:37:04.499Z,16.88
2018-06-11T08:38:04.301Z,16.88
2018-06-11T08:39:04.306Z,16.88
2018-06-11T08:40:04.309Z,22.50
2018-06-11T08:41:04.312Z,16.88
2018-06-11T08:42:04.525Z,22.50
2018-06-11T08:43:04.521Z,16.88
2018-06-11T08:44:04.527Z,16.88
2018-06-11T08:45:04.329Z,22.50
2018-06-11T08:46:04.320Z,16.88
2018-06-11T08:47:04.324Z,22.50
2018-06-11T08:48:04.328Z,22.50
2018-06-11T08:49:04.332Z,16.88
2018-06-11T08:50:04.375Z,16.88
2018-06-11T08:51:04.546Z,16.88
2018-06-11T08:52:04.545Z,22.50
2018-06-11T08:53:04.357Z,22.50
2018-06-11T08:54:04.352Z,22.50
2018-06-11T08:55:04.403Z,22.50
2018-06-11T08:56:04.359Z,22.50
2018-06-11T08:57:04.578Z,22.50
2018-06-11T08:58:04.366Z,22.50
2018-06-11T08:59:04.381Z,22.50
2018-06-11T09:00:04.415Z,22.50
2018-06-11T09:01:04.379Z,22.50
2018-06-11T09:02:04.386Z,28.13
2018-06-11T09:03:04.602Z,28.13
2018-06-11T09:04:04.593Z,28.13
2018-06-11T09:05:04.625Z,22.50
2018-06-11T09:06:04.400Z,16.88
2018-06-11T09:07:04.478Z,16.88
2018-06-11T09:08:04.422Z,22.50
2018-06-11T09:09:04.627Z,22.50
2018-06-11T09:10:04.633Z,22.50
2018-06-11T09:11:04.430Z,22.50
2018-06-11T09:12:04.425Z,22.50
2018-06-11T09:13:04.644Z,22.50
2018-06-11T09:14:04.453Z,22.50
2018-06-11T09:15:04.465Z,28.13
2018-06-11T09:16:04.443Z,28.13
2018-06-11T09:17:04.460Z,28.13
2018-06-11T09:18:04.569Z,28.13
2018-06-11T09:19:04.464Z,28.13
2018-06-11T09:20:04.484Z,22.50
2018-06-11T09:21:04.477Z,28.13
2018-06-11T09:22:04.482Z,28.13
2018-06-11T09:23:04.483Z,28.13
2018-06-11T09:24:04.474Z,28.13
2018-06-11T09:25:04.532Z,28.13
2018-06-11T09:26:04.690Z,28.13
2018-06-11T09:27:04.690Z,22.50
2018-06-11T09:28:04.501Z,28.13
2018-06-11T09:29:04.499Z,33.75
2018-06-11T09:30:04.504Z,28.13
2018-06-11T09:31:04.641Z,28.13
2018-06-11T09:32:04.523Z,28.13
2018-06-11T09:33:04.539Z,28.13
2018-06-11T09:34:04.527Z,22.50
2018-06-11T09:35:04.536Z,22.50
2018-06-11T09:36:04.537Z,22.50
2018-06-11T09:37:04.539Z,22.50
2018-06-11T09:38:04.549Z,22.50
2018-06-11T09:39:04.560Z,22.50
2018-06-11T09:40:04.540Z,22.50
2018-06-11T09:41:04.557Z,22.50
2018-06-11T09:42:04.561Z,16.88
2018-06-11T09:43:04.765Z,16.88
2018-06-11T09:44:04.573Z,16.88
2018-06-11T09:45:04.563Z,16.88
2018-06-11T09:46:04.777Z,16.88
2018-06-11T09:47:04.783Z,16.88
2018-06-11T09:48:04.590Z,16.88
2018-06-11T09:49:04.783Z,16.88
2018-06-11T09:50:04.582Z,16.88
2018-06-11T09:51:04.584Z,16.88
2018-06-11T09:52:04.603Z,16.88
2018-06-11T09:53:04.605Z,16.88
2018-06-11T09:54:04.814Z,16.88
2018-06-11T09:55:04.600Z,11.25
2018-06-11T09:56:04.605Z,11.25
2018-06-11T09:57:04.607Z,11.25
2018-06-11T09:58:04.610Z,11.25
2018-06-11T09:59:04.616Z,11.25
2018-06-11T10:00:04.822Z,11.25
2018-06-11T10:01:04.624Z,11.25
2018-06-11T10:02:04.628Z,16.88
2018-06-11T10:03:04.628Z,16.88
2018-06-11T10:04:04.637Z,16.88
2018-06-11T10:05:04.639Z,16.88
2018-06-11T10:06:04.650Z,16.88
2018-06-11T10:07:04.846Z,16.88
2018-06-11T10:08:04.852Z,16.88
2018-06-11T10:09:04.674Z,16.88
2018-06-11T10:10:04.667Z,16.88
2018-06-11T10:11:04.884Z,16.88
2018-06-11T10:12:04.660Z,16.88
2018-06-11T10:13:04.665Z,16.88
2018-06-11T10:14:04.693Z,16.88
2018-06-11T10:15:04.672Z,16.88
2018-06-11T10:16:04.689Z,16.88
2018-06-11T10:17:04.694Z,16.88
2018-06-11T10:18:04.886Z,16.88
2018-06-11T10:19:04.919Z,16.88
2018-06-11T10:20:04.691Z,16.88
2018-06-11T10:21:04.708Z,16.88
2018-06-11T10:22:04.907Z,16.88
2018-06-11T10:23:04.727Z,16.88
2018-06-11T10:24:04.936Z,16.88
2018-06-11T10:25:04.711Z,16.88
2018-06-11T10:26:04.727Z,16.88
2018-06-11T10:27:04.717Z,16.88
2018-06-11T10:28:04.735Z,16.88
2018-06-11T10:29:04.726Z,16.88
2018-06-11T10:30:04.735Z,16.88
2018-06-11T10:31:04.737Z,16.88
2018-06-11T10:32:04.739Z,16.88
2018-06-11T10:33:04.773Z,11.25
2018-06-11T10:34:04.958Z,11.25
2018-06-11T10:35:04.754Z,11.25
2018-06-11T10:36:04.755Z,11.25
2018-06-11T10:37:04.759Z,11.25
2018-06-11T10:38:04.764Z,11.25
2018-06-11T10:39:04.811Z,16.88
2018-06-11T10:40:04.785Z,16.88
2018-06-11T10:41:04.804Z,16.88
2018-06-11T10:42:04.805Z,16.88
2018-06-11T10:43:05.015Z,16.88
2018-06-11T10:44:04.812Z,16.88
2018-06-11T10:45:04.806Z,16.88
2018-06-11T10:46:04.801Z,16.88
2018-06-11T10:47:04.799Z,16.88
2018-06-11T10:48:04.818Z,16.88
2018-06-11T10:49:04.824Z,16.88
2018-06-11T10:50:05.017Z,16.88
2018-06-11T10:51:04.820Z,16.88
2018-06-11T10:52:05.041Z,16.88
2018-06-11T10:53:04.827Z,16.88
2018-06-11T10:54:04.846Z,16.88
2018-06-11T10:55:05.051Z,16.88
2018-06-11T10:56:04.854Z,16.88
2018-06-11T10:57:04.857Z,16.88
2018-06-11T10:58:05.102Z,16.88
2018-06-11T10:59:04.854Z,16.88
2018-06-11T11:00:04.871Z,16.88
2018-06-11T11:01:05.077Z,16.88
2018-06-11T11:02:04.866Z,11.25
2018-06-11T11:03:04.883Z,16.88
2018-06-11T11:04:04.885Z,16.88
2018-06-11T11:05:04.897Z,16.88
2018-06-11T11:06:04.887Z,16.88
2018-06-11T11:07:04.889Z,16.88
2018-06-11T11:08:04.901Z,16.88
2018-06-11T11:09:04.912Z,16.88
2018-06-11T11:10:04.905Z,16.88
2018-06-11T11:11:04.919Z,16.88
2018-06-11T11:12:05.113Z,16.88
2018-06-11T11:13:05.129Z,16.88
2018-06-11T11:14:04.926Z,16.88
2018-06-11T11:15:04.923Z,16.88
2018-06-11T11:16:04.927Z,16.88
2018-06-11T11:17:05.167Z,16.88
2018-06-11T11:18:04.934Z,16.88
2018-06-11T11:19:04.936Z,11.25
2018-06-11T11:20:04.943Z,11.25
2018-06-11T11:21:04.949Z,11.25
2018-06-11T11:22:05.161Z,11.25
2018-06-11T11:23:04.951Z,11.25
2018-06-11T11:24:05.159Z,11.25
2018-06-11T11:25:04.960Z,11.25
2018-06-11T11:26:04.982Z,16.88
2018-06-11T11:27:04.967Z,11.25
2018-06-11T11:28:04.972Z,11.25
2018-06-11T11:29:04.977Z,11.25
2018-06-11T11:30:04.979Z,16.88
2018-06-11T11:31:05.186Z,16.88
2018-06-11T11:32:05.218Z,11.25
2018-06-11T11:33:05.206Z,16.88
2018-06-11T11:34:05.007Z,16.88
2018-06-11T11:35:05.012Z,16.88
2018-06-11T11:36:05.219Z,11.25
2018-06-11T11:37:05.005Z,16.88
2018-06-11T11:38:05.010Z,11.25
2018-06-11T11:39:05.015Z,11.25
2018-06-11T11:40:05.029Z,11.25
2018-06-11T11:41:05.023Z,11.25
2018-06-11T11:42:05.028Z,11.25
2018-06-11T11:43:05.039Z,11.25
2018-06-11T11:44:05.037Z,11.25
2018-06-11T11:45:05.244Z,11.25
2018-06-11T11:46:05.046Z,11.25
2018-06-11T11:47:05.046Z,11.25
2018-06-11T11:48:05.060Z,11.25
2018-06-11T11:49:05.053Z,11.25
2018-06-11T11:50:05.059Z,11.25
2018-06-11T11:51:05.104Z,11.25
2018-06-11T11:52:05.070Z,11.25
2018-06-11T11:53:05.075Z,11.25
2018-06-11T11:54:05.286Z,11.25
2018-06-11T11:55:05.087Z,11.25
2018-06-11T11:56:05.080Z,11.25
2018-06-11T11:57:05.318Z,11.25
2018-06-11T11:58:05.310Z,11.25
2018-06-11T11:59:05.097Z,11.25
2018-06-11T12:00:05.128Z,11.25
2018-06-11T12:01:05.123Z,11.25
2018-06-11T12:02:05.310Z,11.25
2018-06-11T12:03:05.108Z,11.25
2018-06-11T12:04:05.116Z,11.25
2018-06-11T12:05:05.118Z,5.63
2018-06-11T12:06:05.133Z,11.25
2018-06-11T12:07:05.331Z,11.25
2018-06-11T12:08:05.145Z,11.25
2018-06-11T12:09:05.336Z,11.25
2018-06-11T12:10:05.141Z,11.25
2018-06-11T12:11:05.360Z,11.25
2018-06-11T12:12:05.362Z,11.25
2018-06-11T12:13:05.149Z,11.25
2018-06-11T12:14:05.165Z,11.25
2018-06-11T12:15:05.180Z,11.25
2018-06-11T12:16:05.179Z,11.25
2018-06-11T12:17:05.167Z,11.25
2018-06-11T12:18:05.387Z,11.25
2018-06-11T12:19:05.232Z,11.25
2018-06-11T12:20:05.204Z,11.25
2018-06-11T12:21:05.189Z,11.25
2018-06-11T12:22:05.184Z,11.25
2018-06-11T12:23:05.191Z,11.25
2018-06-11T12:24:05.391Z,11.25
2018-06-11T12:25:05.417Z,11.25
2018-06-11T12:26:05.399Z,11.25
2018-06-11T12:27:05.224Z,11.25
2018-06-11T12:28:05.217Z,11.25
2018-06-11T12:29:05.211Z,11.25
2018-06-11T12:30:05.222Z,11.25
2018-06-11T12:31:05.223Z,11.25
2018-06-11T12:32:05.235Z,11.25
2018-06-11T12:33:05.238Z,11.25
2018-06-11T12:34:05.228Z,11.25
2018-06-11T12:35:05.234Z,11.25
2018-06-11T12:36:05.244Z,11.25
2018-06-11T12:37:05.241Z,11.25
2018-06-11T12:38:05.246Z,11.25
2018-06-11T12:39:05.248Z,11.25
2018-06-11T12:40:05.253Z,16.88
2018-06-11T12:41:05.266Z,16.88
2018-06-11T12:42:05.266Z,16.88
2018-06-11T12:43:05.264Z,16.88
2018-06-11T12:44:05.271Z,16.88
2018-06-11T12:45:05.273Z,16.88
2018-06-11T12:46:05.488Z,16.88
2018-06-11T12:47:05.284Z,16.88
2018-06-11T12:48:05.296Z,16.88
2018-06-11T12:49:05.291Z,11.25
2018-06-11T12:50:05.291Z,16.88
2018-06-11T12:51:05.308Z,11.25
2018-06-11T12:52:05.315Z,11.25
2018-06-11T12:53:05.305Z,11.25
2018-06-11T12:54:05.310Z,11.25
2018-06-11T12:55:05.314Z,11.25
2018-06-11T12:56:05.521Z,11.25
2018-06-11T12:57:05.321Z,11.25
2018-06-11T12:58:05.337Z,11.25
2018-06-11T12:59:05.342Z,11.25
2018-06-11T13:00:05.336Z,11.25
2018-06-11T13:01:05.349Z,11.25
2018-06-11T13:02:05.555Z,11.25
2018-06-11T13:03:05.358Z,11.25